createdAt,value
2022-08-26T00:01:56.459Z,98596.13
2022-08-26T00:04:25.102Z,98601.13
2022-08-26T00:06:53.743Z,98600.63
2022-08-26T00:09:22.582Z,98600.75
2022-08-26T00:11:53.775Z,98595.25
2022-08-26T00:14:21.273Z,98593.78
2022-08-26T00:16:48.993Z,98597.66
2022-08-26T00:19:20.307Z,98592.44
2022-08-26T00:21:49.565Z,98594.84
2022-08-26T00:24:18.976Z,98598.50
2022-08-26T00:26:46.498Z,98595.72
2022-08-26T00:29:13.870Z,98600.28
2022-08-26T00:31:42.545Z,98599.88
2022-08-26T00:34:12.487Z,98599.00
2022-08-26T00:36:40.889Z,98601.78
2022-08-26T00:39:08.858Z,98604.03
2022-08-26T00:41:39.148Z,98601.53
2022-08-26T00:44:06.753Z,98598.53
2022-08-26T00:46:46.604Z,98601.53
2022-08-26T00:49:25.730Z,98600.78
2022-08-26T00:51:58.709Z,98605.22
2022-08-26T00:54:33.945Z,98604.00
2022-08-26T00:57:16.239Z,98605.50
2022-08-26T01:00:06.646Z,98601.25
2022-08-26T01:02:33.889Z,98597.38
2022-08-26T01:05:04.002Z,98599.81
2022-08-26T01:07:32.121Z,98601.59
2022-08-26T01:10:06.324Z,98599.59
2022-08-26T01:12:40.655Z,98595.03
2022-08-26T01:15:10.814Z,98588.06
2022-08-26T01:17:40.006Z,98589.91
2022-08-26T01:20:21.587Z,98589.38
2022-08-26T01:22:58.870Z,98591.53
2022-08-26T01:25:33.162Z,98586.97
2022-08-26T01:28:05.849Z,98587.03
2022-08-26T01:30:34.433Z,98583.00
2022-08-26T01:33:08.230Z,98589.53
2022-08-26T01:35:36.238Z,98596.06
2022-08-26T01:38:03.992Z,98607.03
2022-08-26T01:40:35.603Z,98598.94
2022-08-26T01:43:04.020Z,98594.97
2022-08-26T01:45:33.961Z,98605.22
2022-08-26T01:48:04.755Z,98600.41
2022-08-26T01:50:35.376Z,98604.28
2022-08-26T01:53:10.578Z,98602.88
2022-08-26T01:55:41.688Z,98608.41
2022-08-26T01:58:17.499Z,98613.59
2022-08-26T02:00:46.445Z,98614.56
2022-08-26T02:03:21.429Z,98601.84
2022-08-26T02:06:01.711Z,98603.16
2022-08-26T02:08:44.138Z,98605.53
2022-08-26T02:11:11.730Z,98592.72
2022-08-26T02:13:45.983Z,98589.16
2022-08-26T02:16:18.379Z,98595.16
2022-08-26T02:18:46.877Z,98595.09
2022-08-26T02:21:13.986Z,98589.09
2022-08-26T02:23:42.483Z,98591.00
2022-08-26T02:26:20.968Z,98595.00
2022-08-26T02:29:00.033Z,98597.91
2022-08-26T02:31:27.482Z,98601.16
2022-08-26T02:33:54.175Z,98603.06
2022-08-26T02:36:24.270Z,98596.81
2022-08-26T02:38:55.571Z,98603.22
2022-08-26T02:41:23.056Z,98601.75
2022-08-26T02:43:49.955Z,98589.63
2022-08-26T02:46:27.908Z,98595.09
2022-08-26T02:48:57.879Z,98594.34
2022-08-26T02:51:24.912Z,98597.13
2022-08-26T02:53:51.727Z,98597.13
2022-08-26T02:56:18.535Z,98597.69
2022-08-26T02:58:45.712Z,98589.84
2022-08-26T03:01:29.743Z,98598.34
2022-08-26T03:03:57.499Z,98588.59
2022-08-26T03:06:24.704Z,98593.09
2022-08-26T03:08:52.699Z,98594.44
2022-08-26T03:11:20.088Z,98585.41
2022-08-26T03:13:48.570Z,98587.75
2022-08-26T03:16:15.770Z,98587.19
2022-08-26T03:18:42.831Z,98591.47
2022-08-26T03:21:17.675Z,98588.53
2022-08-26T03:23:45.419Z,98592.28
2022-08-26T03:26:15.595Z,98587.72
2022-08-26T03:29:01.210Z,98582.75
2022-08-26T03:31:29.859Z,98582.59
2022-08-26T03:33:59.263Z,98583.13
2022-08-26T03:36:27.115Z,98580.31
2022-08-26T03:38:54.319Z,98578.50
2022-08-26T03:41:21.262Z,98585.38
2022-08-26T03:43:50.559Z,98577.31
2022-08-26T03:46:20.559Z,98575.59
2022-08-26T03:48:48.001Z,98578.09
2022-08-26T03:51:19.115Z,98578.25
2022-08-26T03:53:48.023Z,98583.25
2022-08-26T03:56:15.336Z,98579.22
2022-08-26T03:58:44.223Z,98584.91
2022-08-26T04:01:12.571Z,98582.63
2022-08-26T04:03:57.724Z,98584.31
2022-08-26T04:06:37.960Z,98579.13
2022-08-26T04:09:11.612Z,98579.19
2022-08-26T04:11:39.605Z,98572.16
2022-08-26T04:14:20.021Z,98577.00
2022-08-26T04:16:48.551Z,98574.91
2022-08-26T04:19:17.319Z,98575.38
2022-08-26T04:21:45.432Z,98569.72
2022-08-26T04:24:15.557Z,98567.34
2022-08-26T04:26:43.917Z,98571.41
2022-08-26T04:29:18.788Z,98575.25
2022-08-26T04:31:48.022Z,98577.53
2022-08-26T04:34:16.557Z,98577.44
2022-08-26T04:36:44.351Z,98578.22
2022-08-26T04:39:14.777Z,98586.00
2022-08-26T04:41:41.460Z,98576.41
2022-08-26T04:44:08.214Z,98576.72
2022-08-26T04:46:39.805Z,98583.06
2022-08-26T04:49:11.512Z,98578.13
2022-08-26T04:51:38.995Z,98584.16
2022-08-26T04:54:07.086Z,98579.25
2022-08-26T04:56:38.616Z,98586.66
2022-08-26T04:59:16.842Z,98584.25
2022-08-26T05:01:49.065Z,98590.56
2022-08-26T05:04:18.801Z,98591.81
2022-08-26T05:06:48.751Z,98582.59
2022-08-26T05:09:18.235Z,98588.72
2022-08-26T05:11:45.940Z,98590.22
2022-08-26T05:14:20.458Z,98584.09
2022-08-26T05:16:47.990Z,98577.19
2022-08-26T05:19:17.237Z,98585.50
2022-08-26T05:21:47.169Z,98584.66
2022-08-26T05:24:15.020Z,98590.91
2022-08-26T05:26:42.091Z,98587.91
2022-08-26T05:29:12.056Z,98583.38
2022-08-26T05:31:38.833Z,98591.31
2022-08-26T05:34:05.901Z,98593.84
2022-08-26T05:36:35.631Z,98589.38
2022-08-26T05:39:06.022Z,98599.56
2022-08-26T05:41:38.562Z,98595.84
2022-08-26T05:44:09.260Z,98605.03
2022-08-26T05:46:37.369Z,98592.72
2022-08-26T05:49:06.090Z,98608.06
2022-08-26T05:51:46.129Z,98602.63
2022-08-26T05:54:14.967Z,98609.69
2022-08-26T05:56:52.167Z,98612.94
2022-08-26T05:59:21.368Z,98617.13
2022-08-26T06:01:52.708Z,98605.72
2022-08-26T06:04:20.131Z,98605.53
2022-08-26T06:06:47.125Z,98605.03
2022-08-26T06:09:13.993Z,98611.00
2022-08-26T06:11:44.357Z,98608.91
2022-08-26T06:14:11.589Z,98614.75
2022-08-26T06:16:41.380Z,98608.31
2022-08-26T06:19:11.501Z,98607.78
2022-08-26T06:21:41.615Z,98600.97
2022-08-26T06:24:31.643Z,98605.19
2022-08-26T06:27:03.463Z,98605.97
2022-08-26T06:29:34.595Z,98615.13
2022-08-26T06:32:05.458Z,98617.63
2022-08-26T06:34:34.026Z,98618.25
2022-08-26T06:37:06.462Z,98631.75
2022-08-26T06:39:33.722Z,98627.81
2022-08-26T06:42:00.936Z,98626.88
2022-08-26T06:44:29.960Z,98630.66
2022-08-26T06:47:00.828Z,98636.47
2022-08-26T06:49:27.849Z,98635.66
2022-08-26T06:51:58.082Z,98637.81
2022-08-26T06:54:31.398Z,98638.59
2022-08-26T06:56:58.383Z,98644.63
2022-08-26T06:59:25.356Z,98643.16
2022-08-26T07:01:52.344Z,98645.63
2022-08-26T07:04:21.906Z,98632.19
2022-08-26T07:06:52.822Z,98634.97
2022-08-26T07:09:22.612Z,98632.59
2022-08-26T07:11:51.113Z,98637.19
2022-08-26T07:14:21.225Z,98634.59
2022-08-26T07:17:13.933Z,98632.69
2022-08-26T07:19:42.113Z,98638.53
2022-08-26T07:22:14.895Z,98631.41
2022-08-26T07:24:43.412Z,98632.22
2022-08-26T07:27:15.026Z,98632.88
2022-08-26T07:29:43.389Z,98629.34
2022-08-26T07:32:13.070Z,98630.06
2022-08-26T07:34:41.895Z,98624.03
2022-08-26T07:37:09.080Z,98628.16
2022-08-26T07:39:36.080Z,98626.69
2022-08-26T07:42:07.427Z,98633.91
2022-08-26T07:44:36.270Z,98632.31
2022-08-26T07:47:03.396Z,98622.63
2022-08-26T07:49:38.119Z,98631.31
2022-08-26T07:52:05.824Z,98629.63
2022-08-26T07:54:32.725Z,98626.00
2022-08-26T07:56:59.556Z,98625.78
2022-08-26T07:59:26.265Z,98624.91
2022-08-26T08:01:53.041Z,98630.81
2022-08-26T08:04:25.484Z,98625.28
2022-08-26T08:06:54.820Z,98630.34
2022-08-26T08:09:22.294Z,98633.66
2022-08-26T08:11:49.640Z,98626.53
2022-08-26T08:14:18.320Z,98627.91
2022-08-26T08:16:51.174Z,98624.09
2022-08-26T08:19:21.477Z,98630.56
2022-08-26T08:21:48.818Z,98631.66
2022-08-26T08:24:16.164Z,98622.19
2022-08-26T08:26:42.826Z,98632.94
2022-08-26T08:29:09.564Z,98630.19
2022-08-26T08:34:29.046Z,98634.88
2022-08-26T08:36:57.034Z,98637.06
2022-08-26T08:39:25.358Z,98638.00
2022-08-26T08:42:23.652Z,98629.88
2022-08-26T08:44:53.093Z,98638.41
2022-08-26T08:47:39.119Z,98636.81
2022-08-26T08:50:24.652Z,98630.72
2022-08-26T08:53:08.883Z,98625.22
2022-08-26T08:56:24.710Z,98629.50
2022-08-26T08:59:15.623Z,98626.28
2022-08-26T09:01:52.417Z,98619.81
2022-08-26T09:04:48.108Z,98621.28
2022-08-26T09:07:23.473Z,98627.13
2022-08-26T09:10:17.801Z,98620.91
2022-08-26T09:12:47.540Z,98625.47
2022-08-26T09:15:31.395Z,98617.19
2022-08-26T09:18:25.094Z,98618.63
2022-08-26T09:21:08.625Z,98618.22
2022-08-26T09:23:41.712Z,98616.72
2022-08-26T09:26:30.573Z,98618.66
2022-08-26T09:29:02.285Z,98613.38
2022-08-26T09:31:39.013Z,98617.59
2022-08-26T09:34:25.483Z,98617.50
2022-08-26T09:36:58.889Z,98610.19
2022-08-26T09:39:28.269Z,98617.44
2022-08-26T09:42:22.224Z,98613.00
2022-08-26T09:45:04.756Z,98601.22
2022-08-26T09:47:54.393Z,98598.97
2022-08-26T09:50:53.843Z,98601.41
2022-08-26T09:53:36.514Z,98590.13
2022-08-26T09:56:34.411Z,98591.56
2022-08-26T09:59:02.808Z,98587.31
2022-08-26T10:01:41.644Z,98584.38
2022-08-26T10:04:25.191Z,98580.53
2022-08-26T10:07:07.190Z,98580.88
2022-08-26T10:09:42.937Z,98568.22
2022-08-26T10:12:14.719Z,98564.25
2022-08-26T10:14:50.235Z,98567.94
2022-08-26T10:17:23.303Z,98566.63
2022-08-26T10:20:00.004Z,98555.66
2022-08-26T10:23:06.615Z,98552.97
2022-08-26T10:25:49.230Z,98546.63
2022-08-26T10:28:32.401Z,98540.53
2022-08-26T10:31:27.841Z,98529.50
2022-08-26T10:34:00.231Z,98530.47
2022-08-26T10:39:58.761Z,98523.00
2022-08-26T10:43:10.430Z,98522.00
2022-08-26T10:45:47.953Z,98529.81
2022-08-26T10:49:03.360Z,98528.47
2022-08-26T10:51:38.577Z,98514.81
2022-08-26T10:54:25.961Z,98514.63
2022-08-26T10:56:56.800Z,98512.16
2022-08-26T11:00:00.370Z,98511.06
2022-08-26T11:02:47.425Z,98516.97
2022-08-26T11:05:22.605Z,98519.78
2022-08-26T11:07:54.828Z,98516.88
2022-08-26T11:10:21.634Z,98518.31
2022-08-26T11:12:51.744Z,98519.88
2022-08-26T11:15:24.672Z,98519.03
2022-08-26T11:17:51.595Z,98519.03
2022-08-26T11:20:47.223Z,98507.50
2022-08-26T11:23:22.791Z,98514.97
2022-08-26T11:25:56.989Z,98510.44
2022-08-26T11:28:45.732Z,98510.81
2022-08-26T11:31:25.586Z,98501.84
2022-08-26T11:34:00.715Z,98506.19
2022-08-26T11:36:46.634Z,98499.03
2022-08-26T11:39:31.821Z,98491.84
2022-08-26T11:42:27.753Z,98490.31
2022-08-26T11:44:57.933Z,98487.28
2022-08-26T11:47:31.507Z,98481.75
2022-08-26T11:50:28.533Z,98463.56
2022-08-26T11:53:07.642Z,98466.59
2022-08-26T11:55:42.338Z,98468.00
2022-08-26T11:58:13.274Z,98471.25
2022-08-26T12:00:57.822Z,98470.56
2022-08-26T12:03:50.554Z,98469.78
2022-08-26T12:06:34.039Z,98473.06
2022-08-26T12:09:05.949Z,98468.56
2022-08-26T12:11:36.277Z,98464.19
2022-08-26T12:14:21.068Z,98465.28
2022-08-26T12:16:47.938Z,98471.88
2022-08-26T12:19:28.244Z,98467.56
2022-08-26T12:22:19.200Z,98465.25
2022-08-26T12:25:05.337Z,98460.19
2022-08-26T12:27:47.875Z,98459.97
2022-08-26T12:30:26.036Z,98454.25
2022-08-26T12:33:21.861Z,98447.56
2022-08-26T12:35:54.813Z,98447.66
2022-08-26T12:38:25.036Z,98447.00
2022-08-26T12:40:52.087Z,98451.44
2022-08-26T12:43:44.726Z,98447.94
2022-08-26T12:46:24.836Z,98439.00
2022-08-26T12:48:51.647Z,98448.53
2022-08-26T12:51:28.824Z,98444.13
2022-08-26T12:53:56.267Z,98444.19
2022-08-26T12:56:39.346Z,98441.22
2022-08-26T12:59:19.770Z,98447.78
2022-08-26T13:01:48.274Z,98460.38
2022-08-26T13:04:42.531Z,98466.88
2022-08-26T13:07:24.687Z,98472.41
2022-08-26T13:09:55.036Z,98470.28
2022-08-26T13:12:28.578Z,98469.53
2022-08-26T13:14:57.383Z,98463.69
2022-08-26T13:17:25.489Z,98465.19
2022-08-26T13:19:52.114Z,98468.09
2022-08-26T13:22:24.177Z,98462.22
2022-08-26T13:24:56.288Z,98466.59
2022-08-26T13:27:26.127Z,98472.34
2022-08-26T13:29:54.839Z,98486.72
2022-08-26T13:32:22.404Z,98491.22
2022-08-26T13:34:54.054Z,98498.50
2022-08-26T13:37:29.320Z,98499.22
2022-08-26T13:40:04.810Z,98494.88
2022-08-26T13:42:31.600Z,98489.53
2022-08-26T13:44:58.790Z,98482.13
2022-08-26T13:47:25.918Z,98481.25
2022-08-26T13:49:55.774Z,98482.78
2022-08-26T13:52:30.251Z,98491.41
2022-08-26T13:54:59.937Z,98486.31
2022-08-26T13:57:29.853Z,98481.88
2022-08-26T13:59:58.915Z,98476.09
2022-08-26T14:02:27.444Z,98480.56
2022-08-26T14:04:55.115Z,98481.75
2022-08-26T14:07:22.585Z,98485.59
2022-08-26T14:09:49.304Z,98476.41
2022-08-26T14:12:16.546Z,98486.72
2022-08-26T14:14:43.452Z,98474.38
2022-08-26T14:17:12.139Z,98473.50
2022-08-26T14:19:40.327Z,98461.97
2022-08-26T14:22:07.000Z,98460.47
2022-08-26T14:24:33.633Z,98463.47
2022-08-26T14:27:01.306Z,98462.03
2022-08-26T14:29:28.221Z,98461.34
2022-08-26T14:31:56.903Z,98451.94
2022-08-26T14:34:24.650Z,98454.75
2022-08-26T14:36:51.275Z,98447.47
2022-08-26T14:39:17.914Z,98443.13
2022-08-26T14:41:55.443Z,98450.53
2022-08-26T14:44:28.476Z,98437.44
2022-08-26T14:46:55.885Z,98438.84
2022-08-26T14:49:24.291Z,98447.69
2022-08-26T14:51:50.980Z,98438.94
2022-08-26T14:54:19.890Z,98441.84
2022-08-26T14:56:55.665Z,98439.66
2022-08-26T14:59:35.217Z,98433.13
2022-08-26T15:02:02.978Z,98438.94
2022-08-26T15:04:29.827Z,98436.00
2022-08-26T15:06:59.488Z,98441.88
2022-08-26T15:09:28.037Z,98438.94
2022-08-26T15:11:55.313Z,98437.47
2022-08-26T15:14:23.517Z,98436.75
2022-08-26T15:16:53.737Z,98443.31
2022-08-26T15:19:20.896Z,98443.31
2022-08-26T15:21:47.982Z,98441.13
2022-08-26T15:24:18.693Z,98450.63
2022-08-26T15:26:46.598Z,98452.06
2022-08-26T15:29:14.455Z,98462.25
2022-08-26T15:31:41.533Z,98450.59
2022-08-26T15:34:16.066Z,98449.13
2022-08-26T15:36:45.562Z,98446.25
2022-08-26T15:39:14.253Z,98449.84
2022-08-26T15:41:41.089Z,98452.06
2022-08-26T15:44:10.527Z,98457.88
2022-08-26T15:46:37.836Z,98465.16
2022-08-26T15:49:06.880Z,98460.75
2022-08-26T15:51:45.275Z,98460.00
2022-08-26T15:54:13.874Z,98453.50
2022-08-26T15:56:40.534Z,98451.91
2022-08-26T15:59:08.014Z,98454.09
2022-08-26T16:01:35.975Z,98443.94
2022-08-26T16:04:04.041Z,98449.03
2022-08-26T16:06:34.241Z,98450.50
2022-08-26T16:09:01.622Z,98438.78
2022-08-26T16:11:28.938Z,98437.34
2022-08-26T16:13:55.738Z,98447.59
2022-08-26T16:16:23.081Z,98435.94
2022-08-26T16:18:50.251Z,98435.22
2022-08-26T16:21:21.247Z,98430.06
2022-08-26T16:23:48.528Z,98428.66
2022-08-26T16:26:21.248Z,98432.97
2022-08-26T16:28:48.247Z,98433.75
2022-08-26T16:31:15.865Z,98440.34
2022-08-26T16:33:42.635Z,98440.31
2022-08-26T16:36:11.178Z,98451.94
2022-08-26T16:38:38.946Z,98460.66
2022-08-26T16:41:06.885Z,98461.38
2022-08-26T16:43:34.681Z,98467.84
2022-08-26T16:46:01.517Z,98469.22
2022-08-26T16:48:28.652Z,98480.94
2022-08-26T16:50:55.422Z,98478.63
2022-08-26T16:53:23.239Z,98491.09
2022-08-26T16:55:51.336Z,98482.25
2022-08-26T16:58:21.995Z,98487.94
2022-08-26T17:00:49.699Z,98482.22
2022-08-26T17:03:16.960Z,98486.50
2022-08-26T17:05:44.356Z,98498.16
2022-08-26T17:08:21.876Z,98499.59
2022-08-26T17:10:55.321Z,98500.47
2022-08-26T17:13:34.611Z,98506.22
2022-08-26T17:16:04.689Z,98511.28
2022-08-26T17:18:32.755Z,98504.78
2022-08-26T17:21:07.820Z,98508.38
2022-08-26T17:23:35.420Z,98518.59
2022-08-26T17:26:02.655Z,98508.41
2022-08-26T17:28:29.522Z,98517.84
2022-08-26T17:30:58.279Z,98517.84
2022-08-26T17:33:26.149Z,98521.56
2022-08-26T17:35:53.701Z,98527.38
2022-08-26T17:38:21.295Z,98528.00
2022-08-26T17:40:51.388Z,98535.97
2022-08-26T17:43:18.972Z,98529.31
2022-08-26T17:45:45.746Z,98543.03
2022-08-26T17:48:12.582Z,98544.25
2022-08-26T17:50:43.214Z,98556.03
2022-08-26T17:53:18.846Z,98545.19
2022-08-26T17:55:47.713Z,98551.19
2022-08-26T17:58:17.751Z,98555.38
2022-08-26T18:00:49.781Z,98558.13
2022-08-26T18:03:18.300Z,98558.28
2022-08-26T18:05:50.696Z,98561.09
2022-08-26T18:08:17.551Z,98565.16
2022-08-26T18:10:44.784Z,98563.06
2022-08-26T18:13:12.257Z,98566.69
2022-08-26T18:15:40.465Z,98565.63
2022-08-26T18:18:07.694Z,98563.91
2022-08-26T18:20:34.986Z,98570.41
2022-08-26T18:23:01.652Z,98570.00
2022-08-26T18:25:28.449Z,98567.34
2022-08-26T18:27:55.189Z,98570.56
2022-08-26T18:30:22.544Z,98572.56
2022-08-26T18:32:51.320Z,98583.97
2022-08-26T18:35:18.985Z,98585.16
2022-08-26T18:37:46.137Z,98581.38
2022-08-26T18:40:14.481Z,98590.22
2022-08-26T18:42:41.488Z,98582.22
2022-08-26T18:45:10.049Z,98582.03
2022-08-26T18:47:43.242Z,98574.44
2022-08-26T18:50:10.965Z,98580.88
2022-08-26T18:52:38.333Z,98577.75
2022-08-26T18:55:05.953Z,98577.91
2022-08-26T18:57:32.620Z,98579.22
2022-08-26T18:59:59.325Z,98584.28
2022-08-26T19:02:26.193Z,98581.41
2022-08-26T19:04:52.957Z,98585.56
2022-08-26T19:07:20.489Z,98580.16
2022-08-26T19:09:47.297Z,98589.22
2022-08-26T19:12:20.662Z,98584.06
2022-08-26T19:14:47.415Z,98582.50
2022-08-26T19:17:14.300Z,98581.13
2022-08-26T19:19:41.003Z,98582.94
2022-08-26T19:22:07.724Z,98583.03
2022-08-26T19:24:34.691Z,98575.56
2022-08-26T19:27:03.167Z,98578.63
2022-08-26T19:29:35.532Z,98586.47
2022-08-26T19:32:03.860Z,98588.34
2022-08-26T19:34:31.159Z,98588.84
2022-08-26T19:36:58.287Z,98584.81
2022-08-26T19:39:26.440Z,98597.41
2022-08-26T19:41:53.389Z,98588.94
2022-08-26T19:44:41.034Z,98584.63
2022-08-26T19:47:10.831Z,98599.00
2022-08-26T19:49:38.093Z,98606.06
2022-08-26T19:52:05.906Z,98613.81
2022-08-26T19:54:33.429Z,98605.25
2022-08-26T19:57:00.349Z,98602.25
2022-08-26T19:59:27.138Z,98606.88
2022-08-26T20:02:00.683Z,98600.97
2022-08-26T20:04:30.547Z,98596.66
2022-08-26T20:07:00.229Z,98599.41
2022-08-26T20:09:29.500Z,98597.13
2022-08-26T20:11:56.973Z,98592.75
2022-08-26T20:14:25.231Z,98594.41
2022-08-26T20:16:52.835Z,98590.06
2022-08-26T20:19:38.136Z,98597.78
2022-08-26T20:22:05.465Z,98590.00
2022-08-26T20:24:33.208Z,98593.28
2022-08-26T20:27:01.530Z,98585.31
2022-08-26T20:29:32.148Z,98579.03
2022-08-26T20:31:59.032Z,98581.09
2022-08-26T20:34:26.206Z,98583.44
2022-08-26T20:36:53.015Z,98593.56
2022-08-26T20:39:21.008Z,98602.00
2022-08-26T20:41:48.706Z,98602.53
2022-08-26T20:44:16.558Z,98603.81
2022-08-26T20:46:44.203Z,98608.09
2022-08-26T20:49:11.222Z,98606.81
2022-08-26T20:51:37.948Z,98608.72
2022-08-26T20:54:06.444Z,98612.91
2022-08-26T20:56:33.958Z,98620.47
2022-08-26T20:59:01.672Z,98626.06
2022-08-26T21:01:34.470Z,98611.69
2022-08-26T21:04:08.488Z,98624.72
2022-08-26T21:06:36.156Z,98631.84
2022-08-26T21:09:06.716Z,98635.25
2022-08-26T21:11:35.037Z,98638.13
2022-08-26T21:14:06.654Z,98643.44
2022-08-26T21:16:43.862Z,98639.94
2022-08-26T21:19:13.811Z,98646.34
2022-08-26T21:21:41.135Z,98641.53
2022-08-26T21:24:08.183Z,98641.84
2022-08-26T21:26:35.031Z,98637.50
2022-08-26T21:29:02.404Z,98641.84
2022-08-26T21:31:31.587Z,98643.63
2022-08-26T21:33:59.288Z,98645.75
2022-08-26T21:36:26.499Z,98642.00
2022-08-26T21:38:57.015Z,98647.00
2022-08-26T21:41:24.851Z,98648.63
2022-08-26T21:43:57.840Z,98647.13
2022-08-26T21:46:27.714Z,98646.13
2022-08-26T21:48:58.550Z,98653.53
2022-08-26T21:51:29.651Z,98649.91
2022-08-26T21:53:57.990Z,98658.63
2022-08-26T21:56:27.687Z,98658.16
2022-08-26T21:58:55.953Z,98661.72
2022-08-26T22:01:26.279Z,98663.72
2022-08-26T22:03:53.584Z,98668.44
2022-08-26T22:06:26.749Z,98657.03
2022-08-26T22:08:54.109Z,98659.53
2022-08-26T22:11:20.871Z,98656.38
2022-08-26T22:13:50.817Z,98657.31
2022-08-26T22:16:19.025Z,98655.59
2022-08-26T22:18:45.925Z,98657.63
2022-08-26T22:21:19.768Z,98661.03
2022-08-26T22:23:47.412Z,98656.06
2022-08-26T22:26:25.318Z,98653.25
2022-08-26T22:28:58.862Z,98645.00
2022-08-26T22:31:37.129Z,98654.53
2022-08-26T22:34:11.665Z,98646.66
2022-08-26T22:36:44.411Z,98655.00
2022-08-26T22:39:14.313Z,98653.72
2022-08-26T22:41:43.141Z,98661.66
2022-08-26T22:44:11.552Z,98665.91
2022-08-26T22:46:39.153Z,98665.16
2022-08-26T22:49:08.625Z,98663.69
2022-08-26T22:51:35.352Z,98660.03
2022-08-26T22:54:01.995Z,98659.72
2022-08-26T22:56:28.743Z,98664.56
2022-08-26T22:58:55.423Z,98663.63
2022-08-26T23:01:22.171Z,98657.91
2022-08-26T23:03:49.132Z,98665.75
2022-08-26T23:06:16.208Z,98664.34
2022-08-26T23:08:45.163Z,98667.84
2022-08-26T23:11:13.756Z,98668.81
2022-08-26T23:13:41.072Z,98659.16
2022-08-26T23:16:11.796Z,98659.25
2022-08-26T23:18:40.390Z,98659.41
2022-08-26T23:21:07.559Z,98661.63
2022-08-26T23:23:35.157Z,98663.81
2022-08-26T23:26:06.022Z,98664.63
2022-08-26T23:28:34.384Z,98671.31
2022-08-26T23:31:01.053Z,98675.03
2022-08-26T23:33:48.106Z,98670.59
2022-08-26T23:36:18.188Z,98680.22
2022-08-26T23:38:48.134Z,98677.91
2022-08-26T23:41:21.775Z,98675.34
2022-08-26T23:43:49.029Z,98661.44
2022-08-26T23:46:15.800Z,98659.53
2022-08-26T23:48:42.498Z,98658.03
2022-08-26T23:51:29.103Z,98656.41
2022-08-26T23:53:56.035Z,98663.94
2022-08-26T23:56:22.718Z,98654.97
2022-08-26T23:58:50.363Z,98652.06
